Terminal Aerodrome Forecast
Issued by NWS Charleston, WV

Current Version | Previous Version | Graphics & Text | Print | Product List | Glossary On
Versions: 1 2 3 4 5 6 7 8 9 10 11 12 13 14 15 16 17 18 19 20 21 22 23 24
000
FTUS41 KRLX 171700
TAFBKW
TAF
KBKW 171736Z 1718/1818 27008G17KT 6SM -SHSN BKN012 OVC025
      TEMPO 1718/1720 4SM -SHSN
     FM172100 29010G15KT P6SM OVC020
     FM180200 29009KT P6SM BKN018
     FM181500 31006KT P6SM SCT020 BKN100=

USA.gov is the U.S. government's official web portal to all federal, state and local government web resources and services.